sensor_id;sensor_type;location;lat;lon;timestamp;temperature;humidity
32201;DHT22;18701;45.588;5.288;2023-04-30T00:01:49;14.50;99.90
32201;DHT22;18701;45.588;5.288;2023-04-30T00:04:15;14.40;99.90
32201;DHT22;18701;45.588;5.288;2023-04-30T00:06:40;14.50;99.90
32201;DHT22;18701;45.588;5.288;2023-04-30T00:09:06;14.60;99.90
32201;DHT22;18701;45.588;5.288;2023-04-30T00:11:32;14.60;99.90
32201;DHT22;18701;45.588;5.288;2023-04-30T00:13:57;14.40;99.90
32201;DHT22;18701;45.588;5.288;2023-04-30T00:16:23;14.00;99.90
32201;DHT22;18701;45.588;5.288;2023-04-30T00:18:49;14.30;99.90
32201;DHT22;18701;45.588;5.288;2023-04-30T00:21:14;14.50;99.90
32201;DHT22;18701;45.588;5.288;2023-04-30T00:23:40;14.20;99.90
32201;DHT22;18701;45.588;5.288;2023-04-30T00:26:06;14.20;99.90
32201;DHT22;18701;45.588;5.288;2023-04-30T00:28:31;14.10;99.90
32201;DHT22;18701;45.588;5.288;2023-04-30T00:30:57;14.10;99.90
32201;DHT22;18701;45.588;5.288;2023-04-30T00:33:22;14.10;99.90
32201;DHT22;18701;45.588;5.288;2023-04-30T00:35:48;14.10;99.90
32201;DHT22;18701;45.588;5.288;2023-04-30T00:38:13;13.70;99.90
32201;DHT22;18701;45.588;5.288;2023-04-30T00:40:40;14.10;99.90
32201;DHT22;18701;45.588;5.288;2023-04-30T00:43:08;13.90;99.90
32201;DHT22;18701;45.588;5.288;2023-04-30T00:45:33;13.90;99.90
32201;DHT22;18701;45.588;5.288;2023-04-30T00:47:59;13.80;99.90
32201;DHT22;18701;45.588;5.288;2023-04-30T00:50:25;13.70;99.90
32201;DHT22;18701;45.588;5.288;2023-04-30T00:52:51;13.80;99.90
32201;DHT22;18701;45.588;5.288;2023-04-30T00:55:17;13.70;99.90
32201;DHT22;18701;45.588;5.288;2023-04-30T00:57:43;13.60;99.90
32201;DHT22;18701;45.588;5.288;2023-04-30T01:00:09;13.90;99.90
32201;DHT22;18701;45.588;5.288;2023-04-30T01:02:35;13.80;99.90
32201;DHT22;18701;45.588;5.288;2023-04-30T01:05:02;13.80;99.90
32201;DHT22;18701;45.588;5.288;2023-04-30T01:07:28;13.60;99.90
32201;DHT22;18701;45.588;5.288;2023-04-30T01:09:54;13.70;99.90
32201;DHT22;18701;45.588;5.288;2023-04-30T01:12:45;13.70;99.90
32201;DHT22;18701;45.588;5.288;2023-04-30T01:15:37;13.70;99.90
32201;DHT22;18701;45.588;5.288;2023-04-30T01:18:12;13.60;99.90
32201;DHT22;18701;45.588;5.288;2023-04-30T01:20:47;13.40;99.90
32201;DHT22;18701;45.588;5.288;2023-04-30T01:23:29;13.30;99.90
32201;DHT22;18701;45.588;5.288;2023-04-30T01:28:49;13.40;99.90
32201;DHT22;18701;45.588;5.288;2023-04-30T01:31:19;13.50;99.90
32201;DHT22;18701;45.588;5.288;2023-04-30T01:33:48;13.20;99.90
32201;DHT22;18701;45.588;5.288;2023-04-30T01:44:53;13.30;99.90
32201;DHT22;18701;45.588;5.288;2023-04-30T01:47:29;13.30;99.90
32201;DHT22;18701;45.588;5.288;2023-04-30T01:52:59;13.20;99.90
32201;DHT22;18701;45.588;5.288;2023-04-30T01:55:35;13.10;99.90
32201;DHT22;18701;45.588;5.288;2023-04-30T01:58:05;13.00;99.90
32201;DHT22;18701;45.588;5.288;2023-04-30T02:00:31;13.10;99.90
32201;DHT22;18701;45.588;5.288;2023-04-30T02:02:58;13.30;99.90
32201;DHT22;18701;45.588;5.288;2023-04-30T02:05:23;13.10;99.90
32201;DHT22;18701;45.588;5.288;2023-04-30T02:07:50;13.10;99.90
32201;DHT22;18701;45.588;5.288;2023-04-30T02:10:18;12.90;99.90
32201;DHT22;18701;45.588;5.288;2023-04-30T02:12:44;12.90;99.90
32201;DHT22;18701;45.588;5.288;2023-04-30T02:15:09;12.90;99.90
32201;DHT22;18701;45.588;5.288;2023-04-30T02:17:35;12.80;99.90
32201;DHT22;18701;45.588;5.288;2023-04-30T02:20:01;12.80;99.90
32201;DHT22;18701;45.588;5.288;2023-04-30T02:22:27;13.00;99.90
32201;DHT22;18701;45.588;5.288;2023-04-30T02:24:52;13.10;99.90
32201;DHT22;18701;45.588;5.288;2023-04-30T02:27:20;13.00;99.90
32201;DHT22;18701;45.588;5.288;2023-04-30T02:29:46;12.80;99.90
32201;DHT22;18701;45.588;5.288;2023-04-30T02:32:12;12.70;99.90
32201;DHT22;18701;45.588;5.288;2023-04-30T02:34:39;12.50;99.90
32201;DHT22;18701;45.588;5.288;2023-04-30T02:37:05;12.70;99.90
32201;DHT22;18701;45.588;5.288;2023-04-30T02:39:31;12.70;99.90
32201;DHT22;18701;45.588;5.288;2023-04-30T02:41:57;12.80;99.90
32201;DHT22;18701;45.588;5.288;2023-04-30T02:44:22;12.50;99.90
32201;DHT22;18701;45.588;5.288;2023-04-30T02:46:48;12.60;99.90
32201;DHT22;18701;45.588;5.288;2023-04-30T02:49:13;12.80;99.90
32201;DHT22;18701;45.588;5.288;2023-04-30T02:51:39;12.50;99.90
32201;DHT22;18701;45.588;5.288;2023-04-30T02:54:05;12.70;99.90
32201;DHT22;18701;45.588;5.288;2023-04-30T02:56:30;13.00;99.90
32201;DHT22;18701;45.588;5.288;2023-04-30T02:58:56;12.20;99.90
32201;DHT22;18701;45.588;5.288;2023-04-30T03:01:22;12.30;99.90
32201;DHT22;18701;45.588;5.288;2023-04-30T03:03:47;12.40;99.90
32201;DHT22;18701;45.588;5.288;2023-04-30T03:06:13;12.30;99.90
32201;DHT22;18701;45.588;5.288;2023-04-30T03:08:38;12.00;99.90
32201;DHT22;18701;45.588;5.288;2023-04-30T03:11:04;12.30;99.90
32201;DHT22;18701;45.588;5.288;2023-04-30T03:13:30;12.20;99.90
32201;DHT22;18701;45.588;5.288;2023-04-30T03:15:59;12.20;99.90
32201;DHT22;18701;45.588;5.288;2023-04-30T03:18:29;12.30;99.90
32201;DHT22;18701;45.588;5.288;2023-04-30T03:20:55;12.10;99.90
32201;DHT22;18701;45.588;5.288;2023-04-30T03:23:21;12.50;99.90
32201;DHT22;18701;45.588;5.288;2023-04-30T03:25:47;12.60;99.90
32201;DHT22;18701;45.588;5.288;2023-04-30T03:28:13;12.40;99.90
32201;DHT22;18701;45.588;5.288;2023-04-30T03:30:39;12.30;99.90
32201;DHT22;18701;45.588;5.288;2023-04-30T03:33:05;12.40;99.90
32201;DHT22;18701;45.588;5.288;2023-04-30T03:35:31;12.50;99.90
32201;DHT22;18701;45.588;5.288;2023-04-30T03:37:58;12.50;99.90
32201;DHT22;18701;45.588;5.288;2023-04-30T03:40:24;12.40;99.90
32201;DHT22;18701;45.588;5.288;2023-04-30T03:42:49;12.30;99.90
32201;DHT22;18701;45.588;5.288;2023-04-30T03:45:15;12.60;99.90
32201;DHT22;18701;45.588;5.288;2023-04-30T03:47:42;12.40;99.90
32201;DHT22;18701;45.588;5.288;2023-04-30T03:50:08;12.20;99.90
32201;DHT22;18701;45.588;5.288;2023-04-30T03:52:34;12.30;99.90
32201;DHT22;18701;45.588;5.288;2023-04-30T03:55:01;12.30;99.90
32201;DHT22;18701;45.588;5.288;2023-04-30T03:57:27;12.20;99.90
32201;DHT22;18701;45.588;5.288;2023-04-30T03:59:53;12.10;99.90
32201;DHT22;18701;45.588;5.288;2023-04-30T04:02:19;12.10;99.90
32201;DHT22;18701;45.588;5.288;2023-04-30T04:04:45;12.20;99.90
32201;DHT22;18701;45.588;5.288;2023-04-30T04:07:11;12.20;99.90
32201;DHT22;18701;45.588;5.288;2023-04-30T04:09:37;12.10;99.90
32201;DHT22;18701;45.588;5.288;2023-04-30T04:12:03;12.00;99.90
32201;DHT22;18701;45.588;5.288;2023-04-30T04:14:28;12.00;99.90
32201;DHT22;18701;45.588;5.288;2023-04-30T04:16:55;12.10;99.90
32201;DHT22;18701;45.588;5.288;2023-04-30T04:19:22;12.00;99.90
32201;DHT22;18701;45.588;5.288;2023-04-30T04:21:48;12.00;99.90
32201;DHT22;18701;45.588;5.288;2023-04-30T04:24:13;12.10;99.90
32201;DHT22;18701;45.588;5.288;2023-04-30T04:26:39;12.10;99.90
32201;DHT22;18701;45.588;5.288;2023-04-30T04:29:05;11.90;99.90
32201;DHT22;18701;45.588;5.288;2023-04-30T04:31:33;12.10;99.90
32201;DHT22;18701;45.588;5.288;2023-04-30T04:34:00;11.90;99.90
32201;DHT22;18701;45.588;5.288;2023-04-30T04:36:27;11.90;99.90
32201;DHT22;18701;45.588;5.288;2023-04-30T04:38:59;12.00;99.90
32201;DHT22;18701;45.588;5.288;2023-04-30T04:41:32;12.00;99.90
32201;DHT22;18701;45.588;5.288;2023-04-30T04:43:58;11.90;99.90
32201;DHT22;18701;45.588;5.288;2023-04-30T04:46:24;12.00;99.90
32201;DHT22;18701;45.588;5.288;2023-04-30T04:48:51;12.10;99.90
32201;DHT22;18701;45.588;5.288;2023-04-30T04:51:17;12.30;99.90
32201;DHT22;18701;45.588;5.288;2023-04-30T04:53:43;12.40;99.90
32201;DHT22;18701;45.588;5.288;2023-04-30T04:56:08;12.30;99.90
32201;DHT22;18701;45.588;5.288;2023-04-30T04:58:34;12.30;99.90
32201;DHT22;18701;45.588;5.288;2023-04-30T05:01:00;12.50;99.90
32201;DHT22;18701;45.588;5.288;2023-04-30T05:03:27;12.40;99.90
32201;DHT22;18701;45.588;5.288;2023-04-30T05:05:53;12.20;99.90
32201;DHT22;18701;45.588;5.288;2023-04-30T05:08:19;12.00;99.90
32201;DHT22;18701;45.588;5.288;2023-04-30T05:10:45;12.00;99.90
32201;DHT22;18701;45.588;5.288;2023-04-30T05:13:10;12.00;99.90
32201;DHT22;18701;45.588;5.288;2023-04-30T05:15:36;12.20;99.90
32201;DHT22;18701;45.588;5.288;2023-04-30T05:18:02;12.00;99.90
32201;DHT22;18701;45.588;5.288;2023-04-30T05:20:28;12.10;99.90
32201;DHT22;18701;45.588;5.288;2023-04-30T05:22:53;11.90;99.90
32201;DHT22;18701;45.588;5.288;2023-04-30T05:25:19;12.20;99.90
32201;DHT22;18701;45.588;5.288;2023-04-30T05:27:45;12.00;99.90
32201;DHT22;18701;45.588;5.288;2023-04-30T05:30:10;11.80;99.90
32201;DHT22;18701;45.588;5.288;2023-04-30T05:32:36;11.70;99.90
32201;DHT22;18701;45.588;5.288;2023-04-30T05:35:02;11.80;99.90
32201;DHT22;18701;45.588;5.288;2023-04-30T05:37:28;11.80;99.90
32201;DHT22;18701;45.588;5.288;2023-04-30T05:39:53;11.90;99.90
32201;DHT22;18701;45.588;5.288;2023-04-30T05:42:19;11.80;99.90
32201;DHT22;18701;45.588;5.288;2023-04-30T05:44:45;11.40;99.90
32201;DHT22;18701;45.588;5.288;2023-04-30T05:47:11;11.80;99.90
32201;DHT22;18701;45.588;5.288;2023-04-30T05:49:36;11.70;99.90
32201;DHT22;18701;45.588;5.288;2023-04-30T05:52:02;11.80;99.90
32201;DHT22;18701;45.588;5.288;2023-04-30T05:54:29;11.70;99.90
32201;DHT22;18701;45.588;5.288;2023-04-30T05:56:55;11.50;99.90
32201;DHT22;18701;45.588;5.288;2023-04-30T05:59:20;11.30;99.90
32201;DHT22;18701;45.588;5.288;2023-04-30T06:01:46;11.50;99.90
32201;DHT22;18701;45.588;5.288;2023-04-30T06:04:11;11.40;99.90
32201;DHT22;18701;45.588;5.288;2023-04-30T06:06:37;11.50;99.90
32201;DHT22;18701;45.588;5.288;2023-04-30T06:09:03;11.70;99.90
32201;DHT22;18701;45.588;5.288;2023-04-30T06:11:29;11.70;99.90
32201;DHT22;18701;45.588;5.288;2023-04-30T06:13:55;11.70;99.90
32201;DHT22;18701;45.588;5.288;2023-04-30T06:16:21;11.70;99.90
32201;DHT22;18701;45.588;5.288;2023-04-30T06:18:47;11.70;99.90
32201;DHT22;18701;45.588;5.288;2023-04-30T06:21:13;11.70;99.90
32201;DHT22;18701;45.588;5.288;2023-04-30T06:23:38;11.80;99.90
32201;DHT22;18701;45.588;5.288;2023-04-30T06:26:04;11.70;99.90
32201;DHT22;18701;45.588;5.288;2023-04-30T06:28:30;11.70;99.90
32201;DHT22;18701;45.588;5.288;2023-04-30T06:30:55;12.00;99.90
32201;DHT22;18701;45.588;5.288;2023-04-30T06:33:21;11.80;99.90
32201;DHT22;18701;45.588;5.288;2023-04-30T06:35:47;11.80;99.90
32201;DHT22;18701;45.588;5.288;2023-04-30T06:38:13;12.00;99.90
32201;DHT22;18701;45.588;5.288;2023-04-30T06:40:38;11.80;99.90
32201;DHT22;18701;45.588;5.288;2023-04-30T06:43:04;11.90;99.90
32201;DHT22;18701;45.588;5.288;2023-04-30T06:45:30;11.60;99.90
32201;DHT22;18701;45.588;5.288;2023-04-30T06:47:58;11.80;99.90
32201;DHT22;18701;45.588;5.288;2023-04-30T06:50:24;11.60;99.90
32201;DHT22;18701;45.588;5.288;2023-04-30T06:52:50;11.50;99.90
32201;DHT22;18701;45.588;5.288;2023-04-30T06:55:16;11.80;99.90
32201;DHT22;18701;45.588;5.288;2023-04-30T06:57:42;11.80;99.90
32201;DHT22;18701;45.588;5.288;2023-04-30T07:00:09;12.00;99.90
32201;DHT22;18701;45.588;5.288;2023-04-30T07:02:35;12.20;99.90
32201;DHT22;18701;45.588;5.288;2023-04-30T07:05:01;12.20;99.90
32201;DHT22;18701;45.588;5.288;2023-04-30T07:07:27;12.20;99.90
32201;DHT22;18701;45.588;5.288;2023-04-30T07:09:52;12.20;99.90
32201;DHT22;18701;45.588;5.288;2023-04-30T07:12:19;12.20;99.90
32201;DHT22;18701;45.588;5.288;2023-04-30T07:14:45;12.30;99.90
32201;DHT22;18701;45.588;5.288;2023-04-30T07:17:11;12.30;99.90
32201;DHT22;18701;45.588;5.288;2023-04-30T07:19:36;12.20;99.90
32201;DHT22;18701;45.588;5.288;2023-04-30T07:22:02;12.50;99.90
32201;DHT22;18701;45.588;5.288;2023-04-30T07:24:28;12.40;99.90
32201;DHT22;18701;45.588;5.288;2023-04-30T07:26:53;12.40;99.90
32201;DHT22;18701;45.588;5.288;2023-04-30T07:29:19;12.20;99.90
32201;DHT22;18701;45.588;5.288;2023-04-30T07:31:45;12.40;99.90
32201;DHT22;18701;45.588;5.288;2023-04-30T07:34:11;12.20;99.90
32201;DHT22;18701;45.588;5.288;2023-04-30T07:36:37;12.30;99.90
32201;DHT22;18701;45.588;5.288;2023-04-30T07:39:03;12.10;99.90
32201;DHT22;18701;45.588;5.288;2023-04-30T07:41:30;12.20;99.90
32201;DHT22;18701;45.588;5.288;2023-04-30T07:43:55;12.30;99.90
32201;DHT22;18701;45.588;5.288;2023-04-30T07:46:22;12.40;99.90
32201;DHT22;18701;45.588;5.288;2023-04-30T07:48:49;12.80;99.90
32201;DHT22;18701;45.588;5.288;2023-04-30T07:51:15;12.90;99.90
32201;DHT22;18701;45.588;5.288;2023-04-30T07:53:41;13.20;99.90
32201;DHT22;18701;45.588;5.288;2023-04-30T07:56:06;13.10;99.90
32201;DHT22;18701;45.588;5.288;2023-04-30T07:58:32;13.10;99.90
32201;DHT22;18701;45.588;5.288;2023-04-30T08:00:58;13.00;99.90
32201;DHT22;18701;45.588;5.288;2023-04-30T08:03:24;13.10;99.90
32201;DHT22;18701;45.588;5.288;2023-04-30T08:05:50;12.90;99.90
32201;DHT22;18701;45.588;5.288;2023-04-30T08:08:16;12.70;99.90
32201;DHT22;18701;45.588;5.288;2023-04-30T08:10:42;13.00;99.90
32201;DHT22;18701;45.588;5.288;2023-04-30T08:13:07;12.70;99.90
32201;DHT22;18701;45.588;5.288;2023-04-30T08:15:33;13.10;99.90
32201;DHT22;18701;45.588;5.288;2023-04-30T08:17:59;13.20;99.90
32201;DHT22;18701;45.588;5.288;2023-04-30T08:20:24;13.10;99.90
32201;DHT22;18701;45.588;5.288;2023-04-30T08:22:50;12.90;99.90
32201;DHT22;18701;45.588;5.288;2023-04-30T08:25:16;12.80;99.90
32201;DHT22;18701;45.588;5.288;2023-04-30T08:27:41;13.20;99.90
32201;DHT22;18701;45.588;5.288;2023-04-30T08:30:07;13.20;99.90
32201;DHT22;18701;45.588;5.288;2023-04-30T08:32:34;13.40;99.90
32201;DHT22;18701;45.588;5.288;2023-04-30T08:35:06;13.40;99.90
32201;DHT22;18701;45.588;5.288;2023-04-30T08:37:32;13.20;99.90
32201;DHT22;18701;45.588;5.288;2023-04-30T08:39:58;13.10;99.90
32201;DHT22;18701;45.588;5.288;2023-04-30T08:42:30;13.40;99.90
32201;DHT22;18701;45.588;5.288;2023-04-30T08:44:59;13.40;99.90
32201;DHT22;18701;45.588;5.288;2023-04-30T08:47:26;13.60;99.90
32201;DHT22;18701;45.588;5.288;2023-04-30T08:49:52;13.70;99.90
32201;DHT22;18701;45.588;5.288;2023-04-30T08:52:18;13.50;99.90
32201;DHT22;18701;45.588;5.288;2023-04-30T08:54:45;13.60;99.90
32201;DHT22;18701;45.588;5.288;2023-04-30T08:57:11;13.60;99.90
32201;DHT22;18701;45.588;5.288;2023-04-30T08:59:37;13.40;99.90
32201;DHT22;18701;45.588;5.288;2023-04-30T09:02:03;13.50;99.90
32201;DHT22;18701;45.588;5.288;2023-04-30T09:04:29;13.30;99.90
32201;DHT22;18701;45.588;5.288;2023-04-30T09:06:55;13.20;99.90
32201;DHT22;18701;45.588;5.288;2023-04-30T09:09:27;13.00;99.90
32201;DHT22;18701;45.588;5.288;2023-04-30T09:11:53;13.20;99.90
32201;DHT22;18701;45.588;5.288;2023-04-30T09:14:34;13.40;99.90
32201;DHT22;18701;45.588;5.288;2023-04-30T09:17:04;13.30;99.90
32201;DHT22;18701;45.588;5.288;2023-04-30T09:19:30;13.70;99.90
32201;DHT22;18701;45.588;5.288;2023-04-30T09:21:56;13.60;99.90
32201;DHT22;18701;45.588;5.288;2023-04-30T09:24:23;13.50;99.90
32201;DHT22;18701;45.588;5.288;2023-04-30T09:26:50;13.60;99.90
32201;DHT22;18701;45.588;5.288;2023-04-30T09:29:16;13.50;99.90
32201;DHT22;18701;45.588;5.288;2023-04-30T09:31:45;13.50;99.90
32201;DHT22;18701;45.588;5.288;2023-04-30T09:34:12;13.10;99.90
32201;DHT22;18701;45.588;5.288;2023-04-30T09:36:51;13.00;99.90
32201;DHT22;18701;45.588;5.288;2023-04-30T09:39:19;13.10;99.90
32201;DHT22;18701;45.588;5.288;2023-04-30T09:41:45;13.40;99.90
32201;DHT22;18701;45.588;5.288;2023-04-30T09:44:30;13.50;99.90
32201;DHT22;18701;45.588;5.288;2023-04-30T09:46:56;13.80;99.90
32201;DHT22;18701;45.588;5.288;2023-04-30T09:49:23;13.90;99.90
32201;DHT22;18701;45.588;5.288;2023-04-30T09:51:55;14.00;99.90
32201;DHT22;18701;45.588;5.288;2023-04-30T09:54:27;14.50;99.90
32201;DHT22;18701;45.588;5.288;2023-04-30T09:56:55;14.50;99.90
32201;DHT22;18701;45.588;5.288;2023-04-30T09:59:33;14.30;99.90
32201;DHT22;18701;45.588;5.288;2023-04-30T10:02:02;14.10;99.90
32201;DHT22;18701;45.588;5.288;2023-04-30T10:04:40;14.10;99.90
32201;DHT22;18701;45.588;5.288;2023-04-30T10:07:13;14.30;99.90
32201;DHT22;18701;45.588;5.288;2023-04-30T10:09:49;14.00;99.90
32201;DHT22;18701;45.588;5.288;2023-04-30T10:12:25;13.90;99.90
32201;DHT22;18701;45.588;5.288;2023-04-30T10:14:56;14.30;99.90
32201;DHT22;18701;45.588;5.288;2023-04-30T10:17:26;14.70;99.90
32201;DHT22;18701;45.588;5.288;2023-04-30T10:19:59;15.10;99.90
32201;DHT22;18701;45.588;5.288;2023-04-30T10:22:29;14.60;99.90
32201;DHT22;18701;45.588;5.288;2023-04-30T10:24:55;14.90;99.90
32201;DHT22;18701;45.588;5.288;2023-04-30T10:27:20;14.70;99.90
32201;DHT22;18701;45.588;5.288;2023-04-30T10:29:46;15.30;99.90
32201;DHT22;18701;45.588;5.288;2023-04-30T10:32:14;15.00;99.90
32201;DHT22;18701;45.588;5.288;2023-04-30T10:38:09;14.50;99.90
32201;DHT22;18701;45.588;5.288;2023-04-30T10:40:37;14.70;99.90
32201;DHT22;18701;45.588;5.288;2023-04-30T10:43:03;15.00;99.90
32201;DHT22;18701;45.588;5.288;2023-04-30T10:45:35;14.80;99.90
32201;DHT22;18701;45.588;5.288;2023-04-30T10:48:02;14.70;99.90
32201;DHT22;18701;45.588;5.288;2023-04-30T10:50:29;14.50;99.90
32201;DHT22;18701;45.588;5.288;2023-04-30T10:53:04;14.30;99.90
32201;DHT22;18701;45.588;5.288;2023-04-30T10:55:31;14.80;99.90
32201;DHT22;18701;45.588;5.288;2023-04-30T10:57:57;14.80;99.90
32201;DHT22;18701;45.588;5.288;2023-04-30T11:00:25;14.90;99.90
32201;DHT22;18701;45.588;5.288;2023-04-30T11:02:57;15.00;99.90
32201;DHT22;18701;45.588;5.288;2023-04-30T11:05:37;15.00;99.90
32201;DHT22;18701;45.588;5.288;2023-04-30T11:08:03;15.10;99.90
32201;DHT22;18701;45.588;5.288;2023-04-30T11:10:34;15.20;99.90
32201;DHT22;18701;45.588;5.288;2023-04-30T11:13:04;15.30;99.90
32201;DHT22;18701;45.588;5.288;2023-04-30T11:15:40;15.60;99.90
32201;DHT22;18701;45.588;5.288;2023-04-30T11:18:07;15.80;99.90
32201;DHT22;18701;45.588;5.288;2023-04-30T11:20:45;16.00;99.90
32201;DHT22;18701;45.588;5.288;2023-04-30T11:23:14;15.30;99.90
32201;DHT22;18701;45.588;5.288;2023-04-30T11:25:44;15.50;99.90
32201;DHT22;18701;45.588;5.288;2023-04-30T11:28:16;16.00;99.90
32201;DHT22;18701;45.588;5.288;2023-04-30T11:30:56;15.70;99.90
32201;DHT22;18701;45.588;5.288;2023-04-30T11:33:23;15.80;99.90
32201;DHT22;18701;45.588;5.288;2023-04-30T11:35:49;15.60;99.90
32201;DHT22;18701;45.588;5.288;2023-04-30T11:38:36;15.50;99.90
32201;DHT22;18701;45.588;5.288;2023-04-30T11:41:03;15.60;99.90
32201;DHT22;18701;45.588;5.288;2023-04-30T11:43:33;15.80;99.90
32201;DHT22;18701;45.588;5.288;2023-04-30T11:46:12;15.70;99.90
32201;DHT22;18701;45.588;5.288;2023-04-30T11:48:48;16.20;99.90
32201;DHT22;18701;45.588;5.288;2023-04-30T11:51:19;16.70;99.90
32201;DHT22;18701;45.588;5.288;2023-04-30T11:53:49;16.00;99.90
32201;DHT22;18701;45.588;5.288;2023-04-30T11:56:22;16.20;99.90
32201;DHT22;18701;45.588;5.288;2023-04-30T11:58:50;16.20;99.90
32201;DHT22;18701;45.588;5.288;2023-04-30T12:01:16;16.30;99.90
32201;DHT22;18701;45.588;5.288;2023-04-30T12:03:44;16.50;99.90
32201;DHT22;18701;45.588;5.288;2023-04-30T12:06:31;16.70;99.90
32201;DHT22;18701;45.588;5.288;2023-04-30T12:08:58;16.80;99.90
32201;DHT22;18701;45.588;5.288;2023-04-30T12:11:29;17.00;99.90
32201;DHT22;18701;45.588;5.288;2023-04-30T12:14:09;17.10;99.90
32201;DHT22;18701;45.588;5.288;2023-04-30T12:19:04;16.90;99.90
32201;DHT22;18701;45.588;5.288;2023-04-30T12:21:29;16.90;99.90
32201;DHT22;18701;45.588;5.288;2023-04-30T12:23:55;16.70;99.90
32201;DHT22;18701;45.588;5.288;2023-04-30T12:26:21;16.60;99.90
32201;DHT22;18701;45.588;5.288;2023-04-30T12:28:47;17.30;99.90
32201;DHT22;18701;45.588;5.288;2023-04-30T12:31:16;17.50;99.90
32201;DHT22;18701;45.588;5.288;2023-04-30T12:33:42;17.80;99.90
32201;DHT22;18701;45.588;5.288;2023-04-30T12:36:12;17.70;99.90
32201;DHT22;18701;45.588;5.288;2023-04-30T12:38:47;17.60;99.90
32201;DHT22;18701;45.588;5.288;2023-04-30T12:41:12;17.40;99.90
32201;DHT22;18701;45.588;5.288;2023-04-30T12:43:39;17.70;99.90
32201;DHT22;18701;45.588;5.288;2023-04-30T12:46:05;18.00;99.90
32201;DHT22;18701;45.588;5.288;2023-04-30T12:48:42;17.80;99.90
32201;DHT22;18701;45.588;5.288;2023-04-30T12:51:10;17.40;99.90
32201;DHT22;18701;45.588;5.288;2023-04-30T12:53:44;17.10;99.90
32201;DHT22;18701;45.588;5.288;2023-04-30T12:56:14;17.10;99.90
32201;DHT22;18701;45.588;5.288;2023-04-30T12:58:41;16.60;99.90
32201;DHT22;18701;45.588;5.288;2023-04-30T13:01:10;16.80;99.90
32201;DHT22;18701;45.588;5.288;2023-04-30T13:03:37;16.70;99.90
32201;DHT22;18701;45.588;5.288;2023-04-30T13:06:03;16.70;99.90
32201;DHT22;18701;45.588;5.288;2023-04-30T13:08:29;16.20;99.90
32201;DHT22;18701;45.588;5.288;2023-04-30T13:10:55;16.40;99.90
32201;DHT22;18701;45.588;5.288;2023-04-30T13:13:20;16.20;99.90
32201;DHT22;18701;45.588;5.288;2023-04-30T13:15:46;16.50;99.90
32201;DHT22;18701;45.588;5.288;2023-04-30T13:18:12;16.40;99.90
32201;DHT22;18701;45.588;5.288;2023-04-30T13:20:40;16.30;99.90
32201;DHT22;18701;45.588;5.288;2023-04-30T13:23:08;16.30;99.90
32201;DHT22;18701;45.588;5.288;2023-04-30T13:25:34;16.50;99.90
32201;DHT22;18701;45.588;5.288;2023-04-30T13:28:01;16.50;99.90
32201;DHT22;18701;45.588;5.288;2023-04-30T13:30:26;16.80;99.90
32201;DHT22;18701;45.588;5.288;2023-04-30T13:32:53;17.20;99.90
32201;DHT22;18701;45.588;5.288;2023-04-30T13:35:19;17.40;99.90
32201;DHT22;18701;45.588;5.288;2023-04-30T13:37:44;17.40;99.90
32201;DHT22;18701;45.588;5.288;2023-04-30T13:40:12;17.10;99.90
32201;DHT22;18701;45.588;5.288;2023-04-30T13:42:39;17.30;99.90
32201;DHT22;18701;45.588;5.288;2023-04-30T13:45:06;17.50;99.90
32201;DHT22;18701;45.588;5.288;2023-04-30T13:47:32;17.50;99.90
32201;DHT22;18701;45.588;5.288;2023-04-30T13:50:00;17.80;99.90
32201;DHT22;18701;45.588;5.288;2023-04-30T13:52:26;17.90;99.90
32201;DHT22;18701;45.588;5.288;2023-04-30T13:54:51;18.70;99.90
32201;DHT22;18701;45.588;5.288;2023-04-30T13:57:17;18.90;99.90
32201;DHT22;18701;45.588;5.288;2023-04-30T13:59:43;19.10;99.90
32201;DHT22;18701;45.588;5.288;2023-04-30T14:02:08;18.90;99.90
32201;DHT22;18701;45.588;5.288;2023-04-30T14:04:35;19.20;99.90
32201;DHT22;18701;45.588;5.288;2023-04-30T14:07:01;19.10;99.90
32201;DHT22;18701;45.588;5.288;2023-04-30T14:09:27;18.60;99.90
32201;DHT22;18701;45.588;5.288;2023-04-30T14:11:54;19.10;99.90
32201;DHT22;18701;45.588;5.288;2023-04-30T14:14:20;19.40;99.90
32201;DHT22;18701;45.588;5.288;2023-04-30T14:16:46;19.50;99.90
32201;DHT22;18701;45.588;5.288;2023-04-30T14:19:11;19.80;99.90
32201;DHT22;18701;45.588;5.288;2023-04-30T14:21:37;19.40;99.90
32201;DHT22;18701;45.588;5.288;2023-04-30T14:24:03;19.70;99.90
32201;DHT22;18701;45.588;5.288;2023-04-30T14:26:29;19.80;99.90
32201;DHT22;18701;45.588;5.288;2023-04-30T14:28:56;19.70;99.90
32201;DHT22;18701;45.588;5.288;2023-04-30T14:31:21;19.70;99.90
32201;DHT22;18701;45.588;5.288;2023-04-30T14:33:47;19.30;99.90
32201;DHT22;18701;45.588;5.288;2023-04-30T14:36:13;19.20;99.90
32201;DHT22;18701;45.588;5.288;2023-04-30T14:38:38;19.50;99.90
32201;DHT22;18701;45.588;5.288;2023-04-30T14:41:04;19.70;99.90
32201;DHT22;18701;45.588;5.288;2023-04-30T14:43:30;19.40;99.90
32201;DHT22;18701;45.588;5.288;2023-04-30T14:45:55;19.80;99.90
32201;DHT22;18701;45.588;5.288;2023-04-30T14:48:21;20.10;99.90
32201;DHT22;18701;45.588;5.288;2023-04-30T14:50:46;19.90;99.90
32201;DHT22;18701;45.588;5.288;2023-04-30T14:53:12;20.10;99.90
32201;DHT22;18701;45.588;5.288;2023-04-30T14:55:38;19.80;99.90
32201;DHT22;18701;45.588;5.288;2023-04-30T14:58:04;19.60;99.90
32201;DHT22;18701;45.588;5.288;2023-04-30T15:00:31;19.80;99.90
32201;DHT22;18701;45.588;5.288;2023-04-30T15:02:57;19.90;99.90
32201;DHT22;18701;45.588;5.288;2023-04-30T15:05:24;19.80;99.90
32201;DHT22;18701;45.588;5.288;2023-04-30T15:07:50;18.90;99.90
32201;DHT22;18701;45.588;5.288;2023-04-30T15:10:16;19.20;99.90
32201;DHT22;18701;45.588;5.288;2023-04-30T15:12:42;19.10;99.90
32201;DHT22;18701;45.588;5.288;2023-04-30T15:15:08;19.20;99.90
32201;DHT22;18701;45.588;5.288;2023-04-30T15:17:34;19.30;99.90
32201;DHT22;18701;45.588;5.288;2023-04-30T15:20:05;19.80;99.90
32201;DHT22;18701;45.588;5.288;2023-04-30T15:22:31;19.90;99.90
32201;DHT22;18701;45.588;5.288;2023-04-30T15:24:57;20.10;99.90
32201;DHT22;18701;45.588;5.288;2023-04-30T15:27:24;20.90;99.90
32201;DHT22;18701;45.588;5.288;2023-04-30T15:29:51;21.30;99.90
32201;DHT22;18701;45.588;5.288;2023-04-30T15:32:17;21.40;99.90
32201;DHT22;18701;45.588;5.288;2023-04-30T15:34:43;20.60;99.90
32201;DHT22;18701;45.588;5.288;2023-04-30T15:37:09;21.20;99.90
32201;DHT22;18701;45.588;5.288;2023-04-30T15:39:35;21.30;99.90
32201;DHT22;18701;45.588;5.288;2023-04-30T15:42:01;21.90;99.90
32201;DHT22;18701;45.588;5.288;2023-04-30T15:44:27;21.00;99.90
32201;DHT22;18701;45.588;5.288;2023-04-30T15:46:53;21.20;99.90
32201;DHT22;18701;45.588;5.288;2023-04-30T15:49:19;21.20;99.90
32201;DHT22;18701;45.588;5.288;2023-04-30T15:51:45;21.40;99.90